Airport View

Enter ICAO identifier to see the current METAR for that AWOS.

KFNL for example

KORB 022053Z AUTO 24012G25KT 10SM SCT075 19/08 A2979 RMK AO2 LTG DSNT SW

2 Sep 2014 21:11

Frequency: 118.325

Phone: 218-757-3169

Other Area AWOS: KCQM - KCDD - KFOZ - KHIB

TAF AMD KHIB 022103Z 0221/0318 25010KT P6SM -RA VCTS BKN060CB BKN100 TEMPO 0221/0223 29025G35KT 1SM TSRA BKN050CB FM030000 VRB02KT P6SM BKN070 FM030300 00000KT P6SM SCT070 FM030800 00000KT 2SM BR SCT003 FM031200 00000KT P6SM SCT001 FM031500 20003KT P6SM BKN250